Time;durP1;ratioP1;P1;durP2;ratioP2;P2;SDS_P1;SDS_P2;PMS_P1;PMS_P2;Temp;Humidity;BMP_temperature;BMP_pressure;BME280_temperature;BME280_humidity;BME280_pressure;Samples;Min_cycle;Max_cycle;Signal;HPM_P1;HPM_P2
2023/05/08 00:00:01;;;;;;;164.02;36.22;;;15.20;99.90;;;14.47;100.00;97591.13;6244052;23;20412;-74
2023/05/08 00:02:27;;;;;;;148.77;34.13;;;15.20;99.90;;;14.48;100.00;97593.50;6244255;23;20871;-74
2023/05/08 00:04:54;;;;;;;167.13;38.95;;;15.20;99.90;;;14.48;100.00;97601.50;6171627;22;20390;-77
2023/05/08 00:07:20;;;;;;;166.60;38.42;;;15.20;99.90;;;14.48;100.00;97606.84;6156351;23;20394;-76
2023/05/08 00:09:46;;;;;;;209.07;44.65;;;15.20;99.90;;;14.47;100.00;97599.91;6154637;23;20367;-77
2023/05/08 00:12:12;;;;;;;222.68;53.53;;;15.20;99.90;;;14.46;100.00;97597.50;6154586;23;20700;-77
2023/05/08 00:14:38;;;;;;;223.98;46.67;;;15.20;99.90;;;14.44;100.00;97600.44;6154414;23;20698;-77
2023/05/08 00:17:04;;;;;;;201.00;41.45;;;15.20;99.90;;;14.44;100.00;97594.31;6153877;23;20371;-77
2023/05/08 00:19:30;;;;;;;199.35;41.97;;;15.20;99.90;;;14.47;100.00;97601.75;6154073;23;20367;-77
2023/05/08 00:21:57;;;;;;;207.15;41.28;;;15.20;99.90;;;14.47;100.00;97601.75;6154409;23;20898;-77
2023/05/08 00:24:23;;;;;;;220.75;43.00;;;15.20;99.90;;;14.48;100.00;97604.16;6154345;23;20366;-77
2023/05/08 00:26:49;;;;;;;220.37;42.47;;;15.20;99.90;;;14.49;100.00;97603.09;6154870;23;20363;-77
2023/05/08 00:29:15;;;;;;;219.97;45.37;;;15.20;99.90;;;14.49;100.00;97605.75;6155058;23;20371;-77
2023/05/08 00:31:41;;;;;;;235.88;43.88;;;15.20;99.90;;;14.49;100.00;97611.09;6153807;23;20371;-77
2023/05/08 00:34:07;;;;;;;237.68;46.80;;;15.20;99.90;;;14.49;100.00;97608.44;6154251;23;20383;-77
2023/05/08 00:36:33;;;;;;;297.55;57.88;;;15.20;99.90;;;14.50;100.00;97604.69;6154331;23;20414;-77
2023/05/08 00:39:00;;;;;;;270.52;53.35;;;15.30;99.90;;;14.50;100.00;97614.56;6154179;23;20700;-77
2023/05/08 00:41:26;;;;;;;215.93;49.17;;;15.30;99.90;;;14.52;100.00;97610.53;6154413;23;20371;-77
2023/05/08 00:43:52;;;;;;;272.50;55.00;;;15.30;99.90;;;14.52;100.00;97609.72;6154380;23;20371;-77
2023/05/08 00:46:19;;;;;;;236.70;47.92;;;15.30;99.90;;;14.51;100.00;97605.50;6154400;23;20376;-77
2023/05/08 00:48:45;;;;;;;243.47;49.77;;;15.30;99.90;;;14.50;100.00;97610.03;6154270;23;20373;-77
2023/05/08 00:51:13;;;;;;;209.75;44.42;;;15.20;99.90;;;14.50;100.00;97611.91;6153842;23;20699;-77
2023/05/08 00:53:44;;;;;;;233.63;49.80;;;15.20;99.90;;;14.47;100.00;97610.56;6154064;23;20395;-77
2023/05/08 00:56:14;;;;;;;215.98;49.17;;;15.20;99.90;;;14.48;100.00;97617.47;6154623;23;20418;-77
2023/05/08 00:58:41;;;;;;;226.77;48.08;;;15.20;99.90;;;14.47;100.00;97620.41;6154348;23;20374;-77
2023/05/08 01:01:07;;;;;;;259.73;51.50;;;15.20;99.90;;;14.45;100.00;97620.69;6153923;23;20367;-77
2023/05/08 01:03:35;;;;;;;230.05;46.92;;;15.20;99.90;;;14.44;100.00;97620.94;6152067;23;20850;-77
2023/05/08 01:06:02;;;;;;;250.98;48.05;;;15.20;99.90;;;14.44;100.00;97623.59;6153870;23;20844;-77
2023/05/08 01:08:28;;;;;;;304.90;52.55;;;15.20;99.90;;;14.43;100.00;97624.69;6152024;23;20379;-77
2023/05/08 01:11:12;;;;;;;299.10;52.78;;;15.20;99.90;;;14.44;100.00;97623.59;6153287;23;20842;-77
2023/05/08 01:13:51;;;;;;;262.83;47.90;;;15.20;99.90;;;14.42;100.00;97620.44;6153629;23;20363;-77
2023/05/08 01:16:37;;;;;;;294.52;51.05;;;15.20;99.90;;;14.41;100.00;97622.28;6153765;23;20375;-77
2023/05/08 01:19:26;;;;;;;271.40;47.70;;;15.20;99.90;;;14.42;100.00;97628.44;6153684;23;20375;-76
2023/05/08 01:22:03;;;;;;;306.10;50.88;;;15.20;99.90;;;14.41;100.00;97624.16;6153637;23;20407;-77
2023/05/08 01:25:11;;;;;;;346.35;53.22;;;15.20;99.90;;;14.41;100.00;97618.84;6153597;23;20363;-77
2023/05/08 01:28:20;;;;;;;324.90;51.85;;;15.20;99.90;;;14.40;100.00;97622.56;6153634;23;20419;-77
2023/05/08 01:31:14;;;;;;;385.23;71.75;;;15.20;99.90;;;14.38;100.00;97624.66;6151538;23;20383;-77
2023/05/08 01:33:49;;;;;;;380.38;72.10;;;15.10;99.90;;;14.33;100.00;97630.81;6153404;23;20363;-77
2023/05/08 01:36:22;;;;;;;398.70;76.00;;;15.10;99.90;;;14.30;100.00;97626.00;6153577;23;20454;-77
2023/05/08 01:39:00;;;;;;;353.97;77.77;;;15.10;99.90;;;14.27;100.00;97631.88;6152248;23;20483;-77
2023/05/08 01:41:30;;;;;;;326.20;59.87;;;15.00;99.90;;;14.20;100.00;97632.16;6153120;23;20387;-77
2023/05/08 01:44:10;;;;;;;337.77;68.83;;;14.90;99.90;;;14.20;100.00;97626.84;6153226;23;20806;-77
2023/05/08 01:46:36;;;;;;;270.15;48.75;;;15.00;99.90;;;14.19;100.00;97629.75;6153421;23;20377;-76
2023/05/08 01:49:08;;;;;;;381.73;68.20;;;14.90;99.90;;;14.19;100.00;97630.56;6153482;23;20493;-77
2023/05/08 01:51:42;;;;;;;275.98;49.60;;;14.90;99.90;;;14.16;100.00;97633.75;6152983;23;20383;-77
2023/05/08 01:54:14;;;;;;;276.17;48.55;;;14.90;99.90;;;14.16;100.00;97628.41;6153335;23;20437;-77
2023/05/08 01:56:43;;;;;;;330.23;50.30;;;14.90;99.90;;;14.15;100.00;97632.13;6153913;23;20446;-76
2023/05/08 01:59:12;;;;;;;322.63;58.10;;;15.00;99.90;;;14.18;100.00;97634.28;6153823;23;20377;-77
2023/05/08 02:01:39;;;;;;;357.70;69.90;;;14.90;99.90;;;14.19;100.00;97632.41;6153847;23;20374;-77
2023/05/08 02:04:08;;;;;;;379.33;68.32;;;14.90;99.90;;;14.12;100.00;97635.34;6152914;23;20834;-77
2023/05/08 02:06:37;;;;;;;299.63;51.15;;;14.90;99.90;;;14.11;100.00;97633.75;6153128;23;20382;-77
2023/05/08 02:09:06;;;;;;;401.08;57.55;;;14.90;99.90;;;14.10;100.00;97637.47;6153032;23;20382;-77
2023/05/08 02:11:34;;;;;;;339.35;53.90;;;14.90;99.90;;;14.09;100.00;97635.88;6152878;23;20367;-77
2023/05/08 02:14:02;;;;;;;341.70;57.10;;;14.90;99.90;;;14.11;100.00;97636.41;6151464;23;21019;-76
2023/05/08 02:16:29;;;;;;;358.38;59.65;;;14.90;99.90;;;14.11;100.00;97631.09;6153181;23;20370;-77
2023/05/08 02:18:58;;;;;;;382.95;70.38;;;14.90;99.90;;;14.11;100.00;97633.75;6151543;23;20382;-77
2023/05/08 02:21:28;;;;;;;388.00;62.47;;;14.90;99.90;;;14.05;100.00;97632.16;6152627;23;20375;-77
2023/05/08 02:23:56;;;;;;;395.40;58.33;;;14.80;99.90;;;14.04;100.00;97630.56;6153075;23;20359;-77
2023/05/08 02:26:24;;;;;;;381.58;59.72;;;14.80;99.90;;;14.02;100.00;97638.00;6153058;23;20363;-77
2023/05/08 02:28:52;;;;;;;379.45;54.38;;;14.80;99.90;;;14.00;100.00;97637.47;6152979;23;20454;-77
2023/05/08 02:31:19;;;;;;;381.02;66.32;;;14.80;99.90;;;13.98;100.00;97642.28;6152609;23;20359;-76
2023/05/08 02:33:47;;;;;;;398.30;67.57;;;14.80;99.90;;;13.95;100.00;97646.25;6152950;23;20703;-77
2023/05/08 02:36:17;;;;;;;325.77;54.30;;;14.70;99.90;;;13.93;100.00;97642.25;6152903;23;20386;-77
2023/05/08 02:38:50;;;;;;;370.20;60.55;;;14.70;99.90;;;13.90;100.00;97635.63;6152942;23;20819;-77
2023/05/08 02:41:19;;;;;;;361.55;53.67;;;14.70;99.90;;;13.89;100.00;97641.22;6152669;23;20849;-76
2023/05/08 02:43:45;;;;;;;396.20;61.13;;;14.70;99.90;;;13.91;100.00;97650.50;6152776;23;20383;-76
2023/05/08 02:46:17;;;;;;;420.95;67.10;;;14.70;99.90;;;13.91;100.00;97652.38;6151418;23;20386;-77
2023/05/08 02:48:53;;;;;;;403.55;61.70;;;14.70;99.90;;;13.89;100.00;97649.19;6153007;23;20382;-77
2023/05/08 02:51:24;;;;;;;376.40;58.08;;;14.70;99.90;;;13.88;100.00;97647.59;6152557;23;20711;-77
2023/05/08 02:53:58;;;;;;;322.35;49.33;;;14.70;99.90;;;13.88;100.00;97648.38;6175836;23;20371;-77
2023/05/08 02:56:35;;;;;;;365.55;56.20;;;14.60;99.90;;;13.89;100.00;97655.31;6152771;23;20375;-77
2023/05/08 02:59:13;;;;;;;398.02;63.28;;;14.70;99.90;;;13.89;100.00;97644.66;6152780;23;20811;-77
2023/05/08 03:01:48;;;;;;;343.33;51.67;;;14.70;99.90;;;13.89;100.00;97649.19;6152486;23;20366;-77
2023/05/08 03:04:25;;;;;;;370.90;50.90;;;14.70;99.90;;;13.89;100.00;97642.00;6152337;23;20707;-77
2023/05/08 03:06:52;;;;;;;367.40;49.30;;;14.70;99.90;;;13.91;100.00;97634.53;6152861;23;20367;-75
2023/05/08 03:09:23;;;;;;;324.20;46.90;;;14.70;99.90;;;13.92;100.00;97638.78;6152642;23;20403;-77
2023/05/08 03:12:01;;;;;;;284.33;46.88;;;14.70;99.90;;;13.94;100.00;97641.19;6152638;23;20367;-77
2023/05/08 03:14:29;;;;;;;278.00;46.87;;;14.70;99.90;;;13.95;100.00;97637.47;6152572;23;20473;-77
2023/05/08 03:16:57;;;;;;;323.08;51.58;;;14.70;99.90;;;13.95;100.00;97638.28;6152761;23;20373;-77
2023/05/08 03:19:31;;;;;;;312.70;48.95;;;14.70;99.90;;;13.95;100.00;97638.28;6152560;23;20383;-77
2023/05/08 03:21:59;;;;;;;371.10;58.90;;;14.70;99.90;;;13.95;100.00;97638.28;6175962;23;20371;-77
2023/05/08 03:24:29;;;;;;;284.83;47.20;;;14.70;99.90;;;13.96;100.00;97639.06;6153069;23;20371;-77
2023/05/08 03:26:57;;;;;;;245.90;41.92;;;14.70;99.90;;;13.99;100.00;97637.72;6152749;23;20367;-77
2023/05/08 03:29:25;;;;;;;245.88;43.03;;;14.70;99.90;;;14.01;100.00;97635.59;6152579;23;20371;-77
2023/05/08 03:31:52;;;;;;;371.30;62.03;;;14.80;99.90;;;14.02;100.00;97637.22;6152846;23;20795;-77
2023/05/08 03:34:20;;;;;;;283.27;49.43;;;14.80;99.90;;;14.04;100.00;97637.75;6152594;23;20488;-77
2023/05/08 03:36:47;;;;;;;375.92;61.22;;;14.80;99.90;;;14.03;100.00;97638.81;6152590;23;20368;-77
2023/05/08 03:39:13;;;;;;;439.85;73.25;;;14.80;99.90;;;14.04;100.00;97635.88;6152884;23;20394;-77
2023/05/08 03:41:40;;;;;;;430.30;63.77;;;14.80;99.90;;;14.01;100.00;97638.28;6152331;23;20367;-77
2023/05/08 03:44:07;;;;;;;433.10;66.88;;;14.80;99.90;;;14.00;100.00;97644.66;6152424;23;20815;-77
2023/05/08 03:46:34;;;;;;;287.30;53.85;;;14.80;99.90;;;13.98;100.00;97641.47;6152554;23;20374;-76
2023/05/08 03:49:02;;;;;;;389.02;79.38;;;14.70;99.90;;;14.01;100.00;97648.91;6152249;23;20382;-77
2023/05/08 03:51:30;;;;;;;439.35;81.28;;;14.80;99.90;;;13.96;100.00;97644.41;6152692;23;20383;-77
2023/05/08 03:53:56;;;;;;;429.45;68.10;;;14.70;99.90;;;13.92;100.00;97648.66;6152892;23;20451;-77
2023/05/08 03:56:21;;;;;;;379.20;59.40;;;14.70;99.90;;;13.91;100.00;97645.19;6152587;23;20402;-77
2023/05/08 03:58:58;;;;;;;403.85;71.10;;;14.70;99.90;;;13.92;100.00;97640.66;6152915;23;20367;-77
2023/05/08 04:01:35;;;;;;;381.92;63.38;;;14.70;99.90;;;13.89;100.00;97641.22;6152499;23;20355;-77
2023/05/08 04:04:06;;;;;;;391.05;60.47;;;14.70;99.90;;;13.88;100.00;97642.28;6152489;23;20393;-76
2023/05/08 04:06:39;;;;;;;406.95;59.65;;;14.70;99.90;;;13.91;100.00;97645.19;6153631;23;20466;-75
2023/05/08 04:09:13;;;;;;;361.60;55.80;;;14.70;99.90;;;13.94;100.00;97644.66;6154600;23;20433;-76
2023/05/08 04:11:46;;;;;;;350.05;56.83;;;14.70;99.90;;;13.98;100.00;97652.94;6154178;23;20457;-74
2023/05/08 04:14:20;;;;;;;334.15;53.88;;;14.70;99.90;;;14.01;100.00;97648.91;6153824;23;20909;-75
2023/05/08 04:16:50;;;;;;;308.63;56.23;;;14.80;99.90;;;14.03;100.00;97652.13;6154023;23;20498;-77
2023/05/08 04:19:23;;;;;;;354.10;57.55;;;14.80;99.90;;;14.04;100.00;97649.19;6154114;23;20369;-75
2023/05/08 04:21:50;;;;;;;293.13;51.65;;;14.80;99.90;;;14.05;100.00;97660.66;6153983;23;20371;-77
2023/05/08 04:24:18;;;;;;;269.70;49.85;;;14.80;99.90;;;14.06;100.00;97659.59;6154399;23;20370;-77
2023/05/08 04:26:45;;;;;;;236.20;45.80;;;14.80;99.90;;;14.06;100.00;97662.25;6154845;23;20450;-77
2023/05/08 04:29:11;;;;;;;289.80;56.40;;;14.80;99.90;;;14.08;100.00;97668.06;6154320;23;20382;-77
2023/05/08 04:31:40;;;;;;;266.77;53.40;;;14.80;99.90;;;14.06;100.00;97665.69;6153413;23;20424;-76
2023/05/08 04:34:08;;;;;;;282.63;56.70;;;14.80;99.90;;;14.06;100.00;97665.69;6153458;23;20869;-75
2023/05/08 04:36:34;;;;;;;267.95;49.97;;;14.80;99.90;;;14.08;100.00;97668.06;6153929;23;20367;-75
2023/05/08 04:39:00;;;;;;;252.23;47.87;;;14.80;99.90;;;14.10;100.00;97668.63;6153695;23;20381;-75
2023/05/08 04:41:26;;;;;;;237.30;46.40;;;14.90;99.90;;;14.09;100.00;97673.16;6152716;23;20425;-75
2023/05/08 04:43:53;;;;;;;282.23;55.45;;;14.90;99.90;;;14.10;100.00;97674.75;6153169;23;20394;-75
2023/05/08 04:46:19;;;;;;;321.98;64.32;;;14.90;99.90;;;14.10;100.00;97673.94;6153590;23;20425;-75
2023/05/08 04:48:46;;;;;;;322.45;58.75;;;14.90;99.90;;;14.10;100.00;97681.94;6153368;23;20375;-75
2023/05/08 04:51:12;;;;;;;277.65;51.10;;;14.80;99.90;;;14.08;100.00;97676.88;6153181;23;20418;-75
2023/05/08 04:53:37;;;;;;;178.20;41.30;;;14.80;99.90;;;14.09;100.00;97672.34;6153925;23;20371;-75
2023/05/08 04:56:04;;;;;;;298.40;51.60;;;14.80;99.90;;;14.11;100.00;97681.66;6153620;23;20383;-75
2023/05/08 04:58:30;;;;;;;263.30;48.75;;;14.90;99.90;;;14.12;100.00;97682.47;6153662;23;20371;-75
2023/05/08 05:00:56;;;;;;;288.15;50.47;;;14.90;99.90;;;14.14;100.00;97683.78;6153190;23;20919;-75
2023/05/08 05:03:22;;;;;;;269.40;50.47;;;14.90;99.90;;;14.16;100.00;97681.66;6153317;23;20755;-75
2023/05/08 05:05:55;;;;;;;299.27;53.35;;;14.90;99.90;;;14.18;100.00;97684.88;6153569;23;20367;-76
2023/05/08 05:08:21;;;;;;;205.55;44.35;;;14.90;99.90;;;14.20;100.00;97690.72;6152355;23;20367;-75
2023/05/08 05:10:47;;;;;;;259.35;49.20;;;14.90;99.90;;;14.20;100.00;97690.72;6153240;23;20849;-75
2023/05/08 05:13:13;;;;;;;275.10;51.70;;;15.00;99.90;;;14.20;100.00;97690.72;6153949;23;20453;-75
2023/05/08 05:15:41;;;;;;;260.77;48.17;;;15.00;99.90;;;14.20;100.00;97690.72;6153462;23;20463;-75
2023/05/08 05:18:07;;;;;;;268.13;50.67;;;15.00;99.90;;;14.21;100.00;97699.50;6153215;23;20381;-75
2023/05/08 05:20:33;;;;;;;235.95;45.38;;;15.00;99.90;;;14.20;100.00;97701.38;6153070;23;20762;-76
2023/05/08 05:23:00;;;;;;;266.17;53.97;;;15.00;99.90;;;14.20;100.00;97700.56;6153463;23;20394;-75
2023/05/08 05:25:26;;;;;;;235.13;46.50;;;15.00;99.90;;;14.20;100.00;97704.03;6153074;23;20751;-75
2023/05/08 05:27:52;;;;;;;230.75;44.75;;;15.00;99.90;;;14.19;100.00;97704.31;6153006;23;20371;-75
2023/05/08 05:30:18;;;;;;;290.58;54.45;;;15.00;99.90;;;14.19;100.00;97699.78;6152045;23;20453;-75
2023/05/08 05:32:44;;;;;;;230.50;48.33;;;14.90;99.90;;;14.18;100.00;97700.03;6149369;23;20383;-76
2023/05/08 05:35:10;;;;;;;234.30;46.47;;;14.90;99.90;;;14.21;100.00;97710.13;6153186;23;20389;-75
2023/05/08 05:37:36;;;;;;;244.03;49.20;;;14.90;99.90;;;14.19;100.00;97701.63;6151721;23;20796;-76
2023/05/08 05:40:06;;;;;;;287.93;55.73;;;14.90;99.90;;;14.18;100.00;97708.81;6152858;23;20719;-76
2023/05/08 05:42:31;;;;;;;264.17;51.85;;;14.90;99.90;;;14.18;100.00;97702.69;6153048;23;20367;-75
2023/05/08 05:44:58;;;;;;;230.77;46.08;;;14.90;99.90;;;14.20;100.00;97709.38;6153125;23;20680;-76
2023/05/08 05:47:24;;;;;;;248.83;47.03;;;14.90;99.90;;;14.23;100.00;97708.81;6153763;23;20818;-75
2023/05/08 05:49:49;;;;;;;240.43;48.60;;;15.00;99.90;;;14.26;100.00;97710.97;6152864;23;20370;-75
2023/05/08 05:52:15;;;;;;;244.13;47.22;;;15.00;99.90;;;14.32;100.00;97709.88;6153157;23;20367;-75
2023/05/08 05:54:41;;;;;;;214.15;45.17;;;15.10;99.90;;;14.37;100.00;97706.41;6153380;23;20375;-75
2023/05/08 05:57:08;;;;;;;209.32;42.55;;;15.10;99.90;;;14.43;100.00;97708.06;6153000;23;20818;-76
2023/05/08 05:59:34;;;;;;;228.52;47.90;;;15.20;99.90;;;14.48;100.00;97716.03;6152795;23;20449;-75
2023/05/08 06:02:00;;;;;;;223.70;45.93;;;15.20;99.90;;;14.52;100.00;97708.28;6153086;23;20398;-75
2023/05/08 06:04:26;;;;;;;234.70;47.22;;;15.20;99.90;;;14.55;100.00;97715.75;6152894;23;20371;-75
2023/05/08 06:06:52;;;;;;;230.73;44.97;;;15.30;99.90;;;14.56;100.00;97710.16;6152904;23;20854;-75
2023/05/08 06:09:18;;;;;;;228.95;45.53;;;15.30;99.90;;;14.59;100.00;97719.47;6151278;23;20477;-75
2023/05/08 06:11:44;;;;;;;201.20;43.63;;;15.30;99.90;;;14.61;100.00;97715.50;6151228;23;20427;-75
2023/05/08 06:14:11;;;;;;;198.27;40.88;;;15.30;99.90;;;14.64;100.00;97712.28;6152988;23;20374;-75
2023/05/08 06:16:37;;;;;;;253.70;59.90;;;15.40;99.90;;;14.63;100.00;97713.38;6152649;23;20367;-75
2023/05/08 06:19:03;;;;;;;222.00;45.73;;;15.40;99.90;;;14.64;100.00;97709.63;6152350;23;20426;-76
2023/05/08 06:21:29;;;;;;;216.45;44.28;;;15.40;99.90;;;14.67;100.00;97721.59;6150923;23;20471;-75
2023/05/08 06:23:55;;;;;;;186.45;40.97;;;15.40;99.90;;;14.69;100.00;97711.47;6152862;23;20809;-75
2023/05/08 06:26:22;;;;;;;198.30;40.60;;;15.40;99.90;;;14.71;100.00;97714.69;6152909;23;20399;-75
2023/05/08 06:28:47;;;;;;;176.73;38.88;;;15.40;99.90;;;14.73;100.00;97718.66;6152276;23;20379;-75
2023/05/08 06:31:15;;;;;;;151.20;34.97;;;15.50;99.90;;;14.77;100.00;97720.78;6150833;23;20375;-75
2023/05/08 06:33:41;;;;;;;168.85;36.60;;;15.50;99.90;;;14.78;100.00;97720.53;6151380;23;20376;-75
2023/05/08 06:36:07;;;;;;;180.63;39.27;;;15.50;99.90;;;14.79;100.00;97727.47;6151072;23;20842;-75
2023/05/08 06:38:33;;;;;;;162.18;38.63;;;15.50;99.90;;;14.81;100.00;97727.19;6151508;23;20375;-76
2023/05/08 06:40:59;;;;;;;160.50;35.72;;;15.50;99.90;;;14.82;100.00;97726.09;6149873;23;20371;-75
2023/05/08 06:43:25;;;;;;;134.60;34.15;;;15.50;99.90;;;14.82;100.00;97728.78;6151437;23;20825;-75
2023/05/08 06:45:51;;;;;;;163.60;36.92;;;15.50;99.90;;;14.78;100.00;97728.53;6152458;23;20363;-75
2023/05/08 06:48:19;;;;;;;142.63;35.85;;;15.50;99.90;;;14.76;100.00;97735.19;6152957;23;20382;-75
2023/05/08 06:50:46;;;;;;;163.50;37.90;;;15.50;99.90;;;14.71;100.00;97728.81;6149804;23;20826;-76
2023/05/08 06:53:12;;;;;;;156.90;40.00;;;15.50;99.90;;;14.68;100.00;97728.53;6150831;23;20367;-76
2023/05/08 06:55:41;;;;;;;157.60;37.70;;;15.40;99.90;;;14.65;100.00;97731.75;6151644;23;20425;-76
2023/05/08 06:58:07;;;;;;;150.93;36.80;;;15.40;99.90;;;14.65;100.00;97726.41;6151439;23;20811;-77
2023/05/08 07:00:33;;;;;;;136.85;34.55;;;15.40;99.90;;;14.62;100.00;97727.75;6151472;23;20429;-76
2023/05/08 07:03:02;;;;;;;140.35;34.80;;;15.40;99.90;;;14.62;100.00;97732.28;6152232;23;20715;-77
2023/05/08 07:05:30;;;;;;;144.73;35.05;;;15.40;99.90;;;14.60;100.00;97732.53;6152200;23;20363;-77
2023/05/08 07:07:55;;;;;;;161.68;41.08;;;15.40;99.90;;;14.57;100.00;97730.44;6152618;23;20379;-76
2023/05/08 07:10:21;;;;;;;152.07;36.95;;;15.30;99.90;;;14.56;100.00;97734.16;6152858;23;20386;-76
2023/05/08 07:12:48;;;;;;;148.73;34.80;;;15.30;99.90;;;14.56;100.00;97738.69;6152622;23;20380;-76
2023/05/08 07:15:14;;;;;;;170.00;39.13;;;15.30;99.90;;;14.55;100.00;97734.41;6152440;23;20433;-77
2023/05/08 07:17:40;;;;;;;141.48;35.20;;;15.30;99.90;;;14.56;100.00;97736.81;6152605;23;20367;-77
2023/05/08 07:20:09;;;;;;;163.80;40.63;;;15.30;99.90;;;14.57;100.00;97737.63;6151424;23;20870;-76
2023/05/08 07:22:37;;;;;;;174.55;41.40;;;15.30;99.90;;;14.58;100.00;97744.53;6150561;23;20376;-76
2023/05/08 07:25:03;;;;;;;164.95;37.78;;;15.30;99.90;;;14.60;100.00;97737.88;6152059;23;20454;-75
2023/05/08 07:27:29;;;;;;;149.77;39.50;;;15.40;99.90;;;14.65;100.00;97737.88;6153322;23;20403;-75
2023/05/08 07:29:57;;;;;;;148.07;38.67;;;15.40;99.90;;;14.70;100.00;97740.53;6152544;23;20510;-75
2023/05/08 07:32:23;;;;;;;91.82;28.85;;;15.40;99.90;;;14.80;100.00;97742.38;6152568;23;20382;-75
2023/05/08 07:34:49;;;;;;;128.43;35.38;;;15.50;99.90;;;14.89;100.00;97739.94;6153409;23;20421;-75
2023/05/08 07:37:15;;;;;;;115.80;33.60;;;15.60;99.90;;;14.98;100.00;97744.47;6152864;23;20371;-75
2023/05/08 07:39:42;;;;;;;114.50;31.50;;;15.70;99.90;;;15.09;100.00;97745.25;6152586;23;20367;-75
2023/05/08 07:42:08;;;;;;;125.85;34.97;;;15.80;99.90;;;15.14;100.00;97742.56;6154753;23;20371;-74
2023/05/08 07:44:36;;;;;;;103.88;30.58;;;15.80;99.90;;;15.21;100.00;97744.94;6154611;23;20426;-75
2023/05/08 07:47:02;;;;;;;120.18;33.08;;;15.90;99.90;;;15.26;100.00;97737.72;6155902;23;20449;-76
2023/05/08 07:49:28;;;;;;;91.60;27.95;;;15.90;99.90;;;15.32;100.00;97749.19;6155588;23;20924;-75
2023/05/08 07:51:54;;;;;;;97.40;28.23;;;16.00;99.90;;;15.36;100.00;97745.69;6154595;23;20402;-75
2023/05/08 07:54:20;;;;;;;66.63;23.33;;;16.00;99.90;;;15.44;100.00;97747.78;6153026;23;20367;-75
2023/05/08 07:56:47;;;;;;;96.67;28.53;;;16.10;99.90;;;15.46;100.00;97745.66;6154855;23;20378;-75
2023/05/08 07:59:13;;;;;;;89.05;26.88;;;16.20;99.90;;;15.54;100.00;97748.84;6155141;23;20377;-76
2023/05/08 08:01:41;;;;;;;70.70;22.70;;;16.20;99.90;;;15.60;100.00;97745.09;6155005;23;20890;-77
2023/05/08 08:04:07;;;;;;;70.70;21.27;;;16.20;99.90;;;15.65;100.00;97747.72;6155099;23;20461;-74
2023/05/08 08:06:33;;;;;;;72.07;22.17;;;16.30;99.90;;;15.67;100.00;97748.25;6152859;23;20865;-73
2023/05/08 08:08:58;;;;;;;75.75;24.00;;;16.30;99.90;;;15.63;100.00;97749.91;6154585;23;20382;-74
2023/05/08 08:11:24;;;;;;;83.65;25.98;;;16.30;99.90;;;15.60;100.00;97753.09;6153521;23;20450;-72
2023/05/08 08:13:52;;;;;;;61.58;20.80;;;16.30;99.90;;;15.58;100.00;97748.03;6154229;23;20703;-73
2023/05/08 08:16:18;;;;;;;100.50;30.40;;;16.20;99.90;;;15.52;100.00;97754.44;6154071;23;20438;-73
2023/05/08 08:18:44;;;;;;;96.82;26.63;;;16.20;99.90;;;15.46;100.00;97750.19;6152518;23;20375;-73
2023/05/08 08:21:09;;;;;;;90.38;25.65;;;16.20;99.90;;;15.38;100.00;97751.56;6155096;23;20371;-75
2023/05/08 08:23:36;;;;;;;96.13;28.17;;;16.10;99.90;;;15.29;100.00;97758.53;6154386;23;20399;-74
2023/05/08 08:26:02;;;;;;;107.63;29.13;;;16.00;99.90;;;15.20;100.00;97754.81;6154301;23;20391;-75
2023/05/08 08:28:28;;;;;;;89.78;26.17;;;15.90;99.90;;;15.14;100.00;97760.44;6154172;23;20371;-74
2023/05/08 08:30:55;;;;;;;107.43;28.25;;;15.90;99.90;;;15.10;100.00;97762.84;6153481;23;20728;-73
2023/05/08 08:33:21;;;;;;;94.20;26.92;;;15.80;99.90;;;15.11;100.00;97765.22;6153996;23;20870;-74
2023/05/08 08:35:47;;;;;;;103.55;29.50;;;15.80;99.90;;;15.09;100.00;97767.38;6154018;23;20414;-76
2023/05/08 08:38:13;;;;;;;148.07;42.30;;;15.80;99.90;;;15.01;100.00;97759.94;6154061;23;20455;-74
2023/05/08 08:40:40;;;;;;;94.78;31.33;;;15.70;99.90;;;14.95;100.00;97763.69;6152615;23;20414;-75
2023/05/08 08:43:06;;;;;;;125.30;34.05;;;15.60;99.90;;;14.88;100.00;97767.69;6154866;23;20839;-76
2023/05/08 08:45:32;;;;;;;153.30;39.25;;;15.60;99.90;;;14.85;100.00;97757.56;6153477;23;20423;-76
2023/05/08 08:48:02;;;;;;;163.73;41.22;;;15.60;99.90;;;14.80;100.00;97769.03;6153694;23;20398;-76
2023/05/08 08:50:34;;;;;;;164.68;40.50;;;15.60;99.90;;;14.78;100.00;97765.84;6154646;23;20379;-76
2023/05/08 08:53:09;;;;;;;127.88;32.63;;;15.60;99.90;;;14.75;100.00;97766.34;6154139;23;20461;-76
2023/05/08 08:55:39;;;;;;;154.05;39.17;;;15.50;99.90;;;14.71;100.00;97762.66;6154380;23;20887;-75
2023/05/08 08:58:16;;;;;;;166.80;39.65;;;15.50;99.90;;;14.69;100.00;97772.75;6154624;23;20430;-76
2023/05/08 09:00:42;;;;;;;181.00;43.17;;;15.50;99.90;;;14.68;100.00;97768.50;6153895;23;20413;-75
2023/05/08 09:03:09;;;;;;;203.97;49.20;;;15.50;99.90;;;14.67;100.00;97767.69;6153243;23;20398;-76
2023/05/08 09:05:36;;;;;;;191.88;43.42;;;15.40;99.90;;;14.70;100.00;97777.03;6154030;23;20375;-75
2023/05/08 09:08:03;;;;;;;184.85;40.70;;;15.40;99.90;;;14.71;100.00;97774.09;6154103;23;20371;-78
2023/05/08 09:10:28;;;;;;;185.67;47.97;;;15.50;99.90;;;14.71;100.00;97775.97;6154570;23;20457;-75
2023/05/08 09:12:55;;;;;;;179.48;45.05;;;15.50;99.90;;;14.70;100.00;97774.38;6152665;23;20536;-74
2023/05/08 09:15:21;;;;;;;159.85;39.17;;;15.50;99.90;;;14.70;100.00;97777.84;6153695;23;20870;-74
2023/05/08 09:17:47;;;;;;;153.73;37.15;;;15.40;99.90;;;14.75;100.00;97776.22;6152264;23;20383;-74
2023/05/08 09:20:15;;;;;;;148.13;37.58;;;15.50;99.90;;;14.82;100.00;97774.88;6153503;23;20446;-75
2023/05/08 09:22:42;;;;;;;111.83;31.10;;;15.50;99.90;;;14.97;100.00;97782.06;6153778;23;20494;-75
2023/05/08 09:25:09;;;;;;;115.32;38.00;;;15.70;99.90;;;15.02;100.00;97774.06;6153602;23;20699;-75
2023/05/08 09:27:35;;;;;;;97.15;30.98;;;15.70;99.90;;;14.87;100.00;97769.56;6153699;23;20409;-75
2023/05/08 09:30:04;;;;;;;99.00;26.70;;;15.50;99.90;;;14.92;100.00;97774.88;6153542;23;20371;-75
2023/05/08 09:32:32;;;;;;;109.70;29.90;;;15.60;99.90;;;15.07;100.00;97768.72;6154305;23;20405;-74
2023/05/08 09:34:59;;;;;;;97.05;27.40;;;15.70;99.90;;;15.26;100.00;97775.06;6153499;23;20466;-76
2023/05/08 09:37:27;;;;;;;71.23;20.10;;;15.90;99.90;;;15.48;100.00;97769.41;6151996;23;20417;-76
2023/05/08 09:39:53;;;;;;;70.30;19.88;;;16.10;99.90;;;15.57;100.00;97778.44;6154227;23;20708;-76
2023/05/08 09:42:20;;;;;;;74.00;21.00;;;16.20;99.90;;;15.66;100.00;97770.69;6154336;23;20425;-76
2023/05/08 09:44:50;;;;;;;43.38;14.35;;;16.30;99.90;;;15.82;100.00;97777.53;6153726;23;20510;-76
2023/05/08 09:47:19;;;;;;;48.58;14.02;;;16.40;99.90;;;15.91;100.00;97778.56;6153697;23;20386;-76
2023/05/08 09:50:00;;;;;;;65.82;18.30;;;16.50;99.90;;;16.01;100.00;97781.19;6153363;23;20469;-76
2023/05/08 09:52:29;;;;;;;65.85;16.35;;;16.60;99.90;;;16.08;100.00;97776.34;6153592;23;20383;-75
2023/05/08 09:55:00;;;;;;;55.60;15.27;;;16.80;99.90;;;16.18;100.00;97780.81;6154835;23;20387;-75
2023/05/08 09:57:27;;;;;;;47.60;13.13;;;16.80;99.90;;;16.27;100.00;97777.28;6153523;23;20470;-75
2023/05/08 10:00:02;;;;;;;36.47;11.32;;;16.90;99.90;;;16.32;100.00;97775.63;6153383;23;20700;-75